Flight Track Log - Related Links

Times and Time Zones

All times are in EDT time to prevent confusion due to time zone crossing. See the UAL4202 flight status page for this flight to view local times or setup timezone preferences in your user account.

Time Position Orientation Groundspeed Altitude Reporting Facility
EDT Latitude Longitude Course Direction KTS MPH feet Rate Location/Type
Thu 09:06:34 PM 38.7786 -90.3719 342° North 163 188 2,500  Level FAA TRACON SMA TRACON (SMA)
Thu 09:06:53 PM 38.7936 -90.3761 348° North 176 203 3,000 1,538 Climbing FAA TRACON SMA TRACON (SMA)
Thu 09:07:13 PM 38.8103 -90.3811 347° North 194 223 3,500 1,756 Climbing FAA TRACON SMA TRACON (SMA)
Thu 09:07:34 PM 38.8339 -90.3808 North 218 251 4,200 1,950 Climbing FAA TRACON SMA TRACON (SMA)
Thu 09:07:53 PM 38.8542 -90.3778 North 234 269 4,800 2,462 Climbing FAA TRACON SMA TRACON (SMA)
Thu 09:08:00 PM 38.7559 -89.9520 87° East  Level FlightAware Approximate
Thu 09:08:13 PM 38.8794 -90.3736 North 241 277 5,800  Level FAA TRACON SMA TRACON (SMA)
Thu 09:08:34 PM 38.9008 -90.3711 North 246 283 6,100 1,050 Climbing FAA TRACON SMA TRACON (SMA)
Thu 09:08:53 PM 38.9242 -90.3681 North 264 304 6,500 1,350 Climbing FAA TRACON SMA TRACON (SMA)
Thu 09:09:00 PM 38.7612 -89.8136 87° East  Level FlightAware Approximate
Thu 09:09:14 PM 38.9453 -90.3533 28° Northeast 288 331 7,000  Level FAA TRACON SMA TRACON (SMA)
Thu 09:09:34 PM 38.9586 -90.3164 65° Northeast 305 351 7,900 2,615 Climbing FAA TRACON SMA TRACON (SMA)
Thu 09:09:53 PM 38.9586 -90.2847 90° East 300 345 8,700 1,800 Climbing FAA TRACON SMA TRACON (SMA)
Thu 09:10:00 PM 38.7664 -89.6751 87° East  Level FlightAware Approximate
Thu 09:10:14 PM 38.9528 -90.2536 104° East 293 337 9,100  Level FAA TRACON SMA TRACON (SMA)
Thu 09:10:34 PM 38.9444 -90.2128 105° East 302 348 9,800 1,650 Climbing FAA TRACON SMA TRACON (SMA)
Thu 09:10:54 PM 38.9369 -90.1797 106° East 310 357 10,200 923 Climbing FAA TRACON SMA TRACON (SMA)
Thu 09:11:00 PM 38.7842 -89.5385 84° East  Level FlightAware Approximate
Thu 09:11:13 PM 38.9294 -90.1453 106° East 320 368 10,400  Level FAA TRACON SMA TRACON (SMA)
Thu 09:11:33 PM 38.9189 -90.0997 107° East 340 391 10,700 600 Climbing FAA TRACON SMA TRACON (SMA)
Thu 09:11:53 PM 38.9108 -90.0619 105° East 352 405 10,800 585 Climbing FAA TRACON SMA TRACON (SMA)
Thu 09:12:14 PM 38.9014 -90.0233 107° East 364 419 11,100 878 Climbing FAA TRACON SMA TRACON (SMA)
Thu 09:12:34 PM 38.8914 -89.9739 105° East 372 428 11,400 1,050 Climbing FAA TRACON SMA TRACON (SMA)
Thu 09:12:54 PM 38.8817 -89.9339 107° East 377 434 11,800 1,050 Climbing FAA TRACON SMA TRACON (SMA)
Thu 09:13:14 PM 38.8731 -89.8933 105° East 382 440 12,100 1,050 Climbing FAA TRACON SMA TRACON (SMA)
Thu 09:13:34 PM 38.8614 -89.8422 106° East 387 445 12,500 878 Climbing FAA TRACON SMA TRACON (SMA)
Thu 09:13:55 PM 38.8519 -89.8011 106° East 391 450 12,700 682 Climbing FAA TRACON SMA TRACON (SMA)
Thu 09:14:18 PM 38.8428 -89.7594 106° East 394 453 13,000 1,000 Climbing FAA TRACON SMA TRACON (SMA)
Thu 09:14:37 PM 38.8311 -89.7072 106° East 398 458 13,400 1,333 Climbing FAA TRACON SMA TRACON (SMA)
Thu 09:14:54 PM 38.8228 -89.6656 104° East 395 455 13,800 1,459 Climbing FAA TRACON SMA TRACON (SMA)
Thu 09:15:14 PM 38.8136 -89.6236 106° East 395 455 14,300 1,463 Climbing FAA TRACON SMA TRACON (SMA)
Thu 09:15:35 PM 38.8017 -89.5725 107° East 392 451 14,800 1,317 Climbing FAA TRACON SMA TRACON (SMA)
Thu 09:15:55 PM 38.7922 -89.5311 106° East 391 450 15,200 1,050 Climbing FAA TRACON SMA TRACON (SMA)
Thu 09:16:15 PM 38.7886 -89.4883 96° East 392 451 15,500 1,077 Climbing FAA TRACON SMA TRACON (SMA)
Thu 09:16:34 PM 38.7925 -89.4333 85° East 403 464 15,900 1,105 Climbing FAA TRACON SMA TRACON (SMA)
Thu 09:16:53 PM 38.7983 -89.3894 80° East 408 470 16,200 750 Climbing FAA TRACON SMA TRACON (SMA)
Thu 09:17:14 PM 38.8033 -89.3447 82° East 411 473 16,400 750 Climbing FAA TRACON SMA TRACON (SMA)
Thu 09:17:33 PM 38.8131 -89.2886 77° East 417 480 16,700 923 Climbing FAA TRACON SMA TRACON (SMA)
Thu 09:17:53 PM 38.8175 -89.2431 83° East 418 481 17,000 732 Climbing FAA TRACON SMA TRACON (SMA)
Thu 09:18:14 PM 38.8244 -89.1978 79° East 420 483 17,200 878 Climbing FAA TRACON SMA TRACON (SMA)
Thu 09:18:34 PM 38.8328 -89.1400 79° East 427 491 17,600 1,077 Climbing FAA TRACON SMA TRACON (SMA)
Thu 09:18:53 PM 38.8392 -89.0944 80° East 425 489 17,900 900 Climbing FAA TRACON SMA TRACON (SMA)
Thu 09:19:14 PM 38.8425 -89.0714 79° East 426 490 18,200 429 Climbing FAA TRACON SMA TRACON (SMA)
Thu 09:19:35 PM 38.8425 -89.0714 90° East 426 490 18,200 1,125 Level FAA TRACON SMA TRACON (SMA)
Thu 09:20:02 PM 38.8575 -88.9892 77° East 430 495 19,100 1,241 Climbing Kansas City Center
Thu 09:21:02 PM 38.8781 -88.8544 79° East 433 498 20,000 927 Climbing Kansas City Center
Thu 09:22:05 PM 38.8956 -88.6983 82° East 439 505 21,000 1,258 Climbing Kansas City Center
Thu 09:23:06 PM 38.9186 -88.5139 81° East 446 513 22,600 1,415 Climbing Kansas City Center
Thu 09:24:08 PM 38.9553 -88.3583 73° East 446 513 23,900 1,188 Climbing Kansas City Center
Thu 09:24:47 PM 38.9803 -88.2661 71° East 460 529 24,600 1,129 Climbing Indianapolis Center
Thu 09:25:49 PM 39.0231 -88.1111 70° East 460 529 25,800 1,220 Climbing Indianapolis Center
Thu 09:26:50 PM 39.0661 -87.9575 70° East 457 526 27,100 1,561 Climbing Indianapolis Center
Thu 09:27:52 PM 39.1167 -87.7778 70° East 447 514 29,000 1,317 Climbing Indianapolis Center
Thu 09:28:53 PM 39.1550 -87.6319 71° East 434 499 29,800 488 Climbing Indianapolis Center
Thu 09:29:55 PM 39.1978 -87.4792 70° East 446 513 30,000 98 Climbing Indianapolis Center
Thu 09:30:56 PM 39.2408 -87.3172 71° East 470 541 30,000  Level Indianapolis Center
Thu 09:31:57 PM 39.2858 -87.1506 71° East 485 558 30,000  Level Indianapolis Center
Thu 09:32:59 PM 39.3314 -86.9831 71° East 489 563 30,000 49 Level Indianapolis Center
Thu 09:34:00 PM 39.3742 -86.8183 71° East 483 556 30,100 488 Climbing Indianapolis Center
Thu 09:35:02 PM 39.4175 -86.6544 71° East 481 554 31,000 439 Climbing Indianapolis Center
Thu 09:36:03 PM 39.4717 -86.4928 66° East 493 567 31,000  Level Indianapolis Center
Thu 09:37:05 PM 39.5544 -86.3383 55° Northeast 518 596 31,000  Level Indianapolis Center
Thu 09:38:06 PM 39.6400 -86.1850 54° Northeast 521 600 31,000  Level Indianapolis Center
Thu 09:39:08 PM 39.7233 -86.0344 54° Northeast 514 592 31,000  Level Indianapolis Center
Thu 09:40:09 PM 39.8139 -85.8625 56° Northeast 512 589 31,000 -49 Level Indianapolis Center
Thu 09:41:10 PM 39.8769 -85.7008 63° Northeast 500 575 30,900  Descending Indianapolis Center
Thu 09:42:12 PM 39.9428 -85.5389 62° Northeast 501 577 31,000 49 Climbing Indianapolis Center
Thu 09:43:13 PM 40.0083 -85.3778 62° Northeast 499 574 31,000 -49 Level Indianapolis Center
Thu 09:44:14 PM 40.0744 -85.2164 62° Northeast 499 574 30,900 -49 Descending Indianapolis Center
Thu 09:45:16 PM 40.1389 -85.0547 62° Northeast 498 573 30,900 49 Level Indianapolis Center
Thu 09:46:17 PM 40.2047 -84.8922 62° Northeast 500 575 31,000 49 Climbing Indianapolis Center
Thu 09:47:19 PM 40.2697 -84.7294 62° Northeast 501 577 31,000  Level Indianapolis Center
Thu 09:48:20 PM 40.3353 -84.5639 63° Northeast 506 582 31,000  Level Indianapolis Center
Thu 09:49:21 PM 40.4006 -84.3981 63° Northeast 506 582 31,000  Level Indianapolis Center
Thu 09:50:23 PM 40.4761 -84.2036 63° Northeast 506 582 31,000  Level Indianapolis Center
Thu 09:51:24 PM 40.5406 -84.0361 63° Northeast 507 583 31,000  Level Indianapolis Center
Thu 09:52:25 PM 40.6047 -83.8692 63° Northeast 506 582 31,000  Level Indianapolis Center
Thu 09:53:27 PM 40.6689 -83.7022 63° Northeast 504 580 31,000  Level Indianapolis Center
Thu 09:54:28 PM 40.7317 -83.5367 63° Northeast 501 577 31,000  Level Indianapolis Center
Thu 09:54:45 PM 40.7467 -83.5047 58° Northeast 513 590 31,000  Level Cleveland Center
Thu 09:55:45 PM 40.7908 -83.3311 71° East 493 567 31,000  Level Cleveland Center
Thu 09:56:45 PM 40.8178 -83.1539 79° East 488 562 31,000  Level Cleveland Center
Thu 09:57:45 PM 40.8450 -82.9575 80° East 488 562 31,000  Level Cleveland Center
Thu 09:58:45 PM 40.8736 -82.7828 78° East 488 562 31,000  Level Cleveland Center
Thu 09:59:45 PM 40.9019 -82.6022 78° East 488 562 31,000  Level Cleveland Center
Thu 10:00:45 PM 40.9300 -82.4217 78° East 488 562 31,000  Level Cleveland Center
Thu 10:01:45 PM 40.9578 -82.2439 78° East 488 562 31,000  Level Cleveland Center
Thu 10:02:45 PM 40.9831 -82.0656 79° East 488 562 31,000  Level Cleveland Center
Thu 10:03:45 PM 41.0103 -81.8819 79° East 494 568 31,000  Level Cleveland Center
Thu 10:04:45 PM 41.0353 -81.7008 80° East 499 574 31,000  Level Cleveland Center
Thu 10:05:45 PM 41.0619 -81.5194 79° East 506 582 31,000  Level Cleveland Center
Thu 10:06:45 PM 41.0883 -81.3381 79° East 506 582 31,000  Level Cleveland Center
Thu 10:07:45 PM 41.1142 -81.1508 80° East 506 582 31,000  Level Cleveland Center
Thu 10:08:45 PM 41.1400 -80.9692 79° East 506 582 31,000  Level Cleveland Center
Thu 10:09:45 PM 41.1656 -80.7900 79° East 506 582 31,000  Level Cleveland Center
Thu 10:10:45 PM 41.1908 -80.6025 80° East 506 582 31,000  Level Cleveland Center
Thu 10:11:45 PM 41.2156 -80.4231 80° East 501 577 31,000  Level Cleveland Center
Thu 10:12:45 PM 41.2361 -80.2572 81° East 501 577 31,000  Level Cleveland Center
Thu 10:13:45 PM 41.2606 -80.0750 80° East 501 577 31,000  Level Cleveland Center
Thu 10:14:45 PM 41.2844 -79.8814 81° East 501 577 31,000  Level Cleveland Center
Thu 10:15:45 PM 41.3083 -79.6986 80° East 501 577 31,000  Level Cleveland Center
Thu 10:16:45 PM 41.3297 -79.5297 80° East 506 582 31,000  Level Cleveland Center
Thu 10:17:45 PM 41.3531 -79.3467 80° East 506 582 31,000  Level Cleveland Center
Thu 10:18:45 PM 41.3778 -79.1442 81° East 506 582 31,000  Level Cleveland Center
Thu 10:19:45 PM 41.4003 -78.9581 81° East 506 582 31,000  Level Cleveland Center
Thu 10:20:45 PM 41.4203 -78.7722 82° East 506 582 31,000  Level Cleveland Center
Thu 10:21:45 PM 41.4361 -78.5889 83° East 506 582 31,000  Level Cleveland Center
Thu 10:22:45 PM 41.4286 -78.4036 93° East 501 577 31,000  Level Cleveland Center
Thu 10:23:16 PM 41.4247 -78.3275 94° East 498 573 31,000  Level New York Center
Thu 10:24:18 PM 41.4156 -78.1411 94° East 503 579 31,000  Level New York Center
Thu 10:25:16 PM 41.4042 -77.9544 95° East 503 579 31,000  Level New York Center
Thu 10:26:17 PM 41.3964 -77.7711 93° East 503 579 31,000  Level New York Center
Thu 10:27:18 PM 41.3842 -77.5844 95° East 503 579 31,000  Level New York Center
Thu 10:28:16 PM 41.3761 -77.3983 93° East 503 579 31,000  Level New York Center
Thu 10:29:18 PM 41.3653 -77.2147 94° East 503 579 31,000  Level New York Center
Thu 10:30:16 PM 41.3519 -77.0339 96° East 503 579 31,000 -356 Level New York Center
Thu 10:31:16 PM 41.3425 -76.8558 94° East 498 573 30,300 -1,289 Descending New York Center
Thu 10:32:17 PM 41.3094 -76.6844 104° East 486 559 28,400 -2,115 Descending New York Center
Thu 10:33:18 PM 41.2656 -76.5206 110° East 480 552 26,000 -2,430 Descending New York Center
Thu 10:34:18 PM 41.2233 -76.3569 109° East 468 539 23,500 -2,521 Descending New York Center
Thu 10:35:17 PM 41.1828 -76.2019 109° East 454 522 21,000 -2,308 Descending New York Center
Thu 10:36:15 PM 41.1381 -76.0386 110° East 432 497 19,000 -1,700 Descending New York Center
Thu 10:37:17 PM 41.1022 -75.9008 109° East 406 467 17,600 -1,610 Descending New York Center
Thu 10:38:18 PM 41.0644 -75.7658 110° East 396 456 15,700 -1,916 Descending New York Center
Thu 10:39:16 PM 41.0281 -75.6394 111° Southeast 396 456 13,800 -1,361 Descending New York Center
Thu 10:40:17 PM 40.9933 -75.5158 110° East 378 435 13,000 -403 Descending New York Center
Thu 10:41:15 PM 40.9589 -75.3872 109° East 347 399 13,000 -893 Level New York Center
Thu 10:42:18 PM 40.9294 -75.2836 111° Southeast 336 387 11,200 -1,650 Descending New York Center
Thu 10:43:15 PM 40.8983 -75.1744 111° Southeast 321 369 9,700 -1,538 Descending New York Center
Thu 10:44:15 PM 40.8669 -75.0625 110° East 297 342 8,200 -1,328 Descending New York Center
Thu 10:45:17 PM 40.8392 -74.9675 111° Southeast 292 336 7,000 -738 Descending New York Center
Thu 10:46:17 PM 40.8114 -74.8672 110° East 286 329 6,700 -555 Descending New York Center
Thu 10:47:16 PM 40.7850 -74.7889 114° Southeast 270 311 5,900 -857 Descending New York Center
Thu 10:48:16 PM 40.7375 -74.7122 129° Southeast 251 289 5,000 -450 Descending New York Center
Thu 10:49:16 PM 40.7044 -74.6444 123° Southeast 240 276 5,000  Level New York Center
Thu 10:49:47 PM 40.6833 -74.6000 122° Southeast 254 292 5,000  Level New York TRACON
Thu 10:50:47 PM 40.6333 -74.5167 128° Southeast 246 283 5,000 -400 Level New York TRACON
Thu 10:51:47 PM 40.6000 -74.4500 123° Southeast 232 267 4,200 -500 Descending New York TRACON
Thu 10:52:47 PM 40.5500 -74.4167 153° Southeast 214 246 4,000 -100 Descending New York TRACON
Thu 10:53:47 PM 40.5000 -74.3833 153° Southeast 203 234 4,000  Level New York TRACON
Thu 10:54:41 PM 40.5000 -74.3333 90° East 174 200 4,000 -378 Level New York TRACON
Thu 10:55:54 PM 40.5333 -74.2667 57° Northeast 177 204 3,200 -709 Descending New York TRACON
Thu 10:56:48 PM 40.5667 -74.2500 21° North 177 204 2,500 -778 Descending New York TRACON

Login

Don't have an account? Register now (free) for customized features, flight alerts, and more!